Unionville, Nevada
Current Conditions -  °F | °C
As of 5:56 AM on Monday 20 Oct 2014 (Local Time) from KWMC Reporting Station
Clear Clear  
Wind Chill: 33°   Ceiling: Unl
Heat Index: 33°   Visibility: 10mi
Dew Point: 21°   Wind: 0mph
Humidity: 61%   Direction: NA
Pressure: 29.95"   Gusts: NA
Location:  40.601°N, 117.984°W
Report Text: KWMC 201256Z AUTO 00000KT 10SM CLR 01/M06 A2995 RMK AO2 SLP122 T00061061
Loading
Personal Weather Stations






























Interactive Weather Map
Tropical Storm Tracking
New forecast layout! Learn more

10-Day Weather Forecast

Advertisements
Track Severe Weather on mobile